Carnival Triumph — C6FN5 — position and weather

sailwx.info

Track history (hours):
 
Tides and Currents Weather Stations Pressure Air Temp Water Temp Dewpoint Dewpoint Depression Visibility Wind Speed Wind Dir Waves Ship Positions

Carnival Triumph

Operator: Carnival Cruise Lines

Last reported at 2020-Mar-29 12:59 UTC. Time now 2020-Mar-29 15:06 UTC.
Position N 26°13' W 079°08'.

Type: Passenger vessel. MMSI: 308045000.

Date/timePositionNaut miles runAvg speedWind from/ knotsBaromVisibWave heightAir tempDewpointWater temp
2020-Mar-29 12:59N 26°13' W 079°08'1 1.0
2020-Mar-29 12:12N 26°14' W 079°09'6 8.5
2020-Mar-29 11:29N 26°11' W 079°15'24 9.7
2020-Mar-29 09:00N 25°58' W 079°37'45 3.3
2020-Mar-28 19:26N 25°15' W 079°54'33 8.3
2020-Mar-28 15:30N 25°48' W 079°51'21 7.1
2020-Mar-28 12:31N 26°05' W 080°04'3 5.7
2020-Mar-28 11:58N 26°06' W 080°07'0 0.2
2020-Mar-28 11:28N 26°06' W 080°07'0 0.0
2020-Mar-28 08:28N 26°06' W 080°07'0 0.0
2020-Mar-28 06:28N 26°06' W 080°07'0 0.0
2020-Mar-28 05:58N 26°06' W 080°07'0 0.0
2020-Mar-28 02:58N 26°06' W 080°07'0 0.0
2020-Mar-28 02:25N 26°06' W 080°07'0 0.0
2020-Mar-28 01:58N 26°06' W 080°07'0 0.0
2020-Mar-28 00:58N 26°06' W 080°07'0 0.0
2020-Mar-27 22:28N 26°06' W 080°07'0 0.0
2020-Mar-27 21:28N 26°06' W 080°07'0 0.0
2020-Mar-27 16:58N 26°06' W 080°07'0 0.0
2020-Mar-27 16:28N 26°06' W 080°07'0 0.0
2020-Mar-27 15:58N 26°06' W 080°07'0 0.0
2020-Mar-27 14:58N 26°06' W 080°07'0 0.0
2020-Mar-27 13:28N 26°06' W 080°07'0 0.0
2020-Mar-27 12:28N 26°06' W 080°07'0 0.0
2020-Mar-27 11:58N 26°06' W 080°07'0 0.0
2020-Mar-27 10:28N 26°06' W 080°07'0 0.0
2020-Mar-27 09:58N 26°06' W 080°07'0 0.0
2020-Mar-27 07:58N 26°06' W 080°07'0 0.0
2020-Mar-27 05:58N 26°06' W 080°07'0 0.0
2020-Mar-27 03:28N 26°06' W 080°07'0 0.0
2020-Mar-26 21:28N 26°06' W 080°07'0 0.0
2020-Mar-26 20:58N 26°06' W 080°07'0 0.0
2020-Mar-26 17:58N 26°06' W 080°07'0 0.0
2020-Mar-26 17:28N 26°06' W 080°07'0 0.0
2020-Mar-26 14:58N 26°06' W 080°07'0 0.0
2020-Mar-26 13:28N 26°06' W 080°07'0 0.0
2020-Mar-26 10:58N 26°06' W 080°07'0 0.0
2020-Mar-26 09:55N 26°06' W 080°07'0 0.0
2020-Mar-26 09:28N 26°06' W 080°07'0 0.0
2020-Mar-26 07:58N 26°06' W 080°07'0 0.0
2020-Mar-26 07:28N 26°06' W 080°07'0 0.0
2020-Mar-26 06:58N 26°06' W 080°07'0 0.0
2020-Mar-26 06:25N 26°06' W 080°07'0 0.0
2020-Mar-26 05:58N 26°06' W 080°07'0 0.0
2020-Mar-26 05:28N 26°06' W 080°07'0 0.0
2020-Mar-26 04:28N 26°06' W 080°07'0 0.0
2020-Mar-26 03:28N 26°06' W 080°07'0 0.0
2020-Mar-25 22:58N 26°06' W 080°07'0 0.0
2020-Mar-25 20:28N 26°06' W 080°07'0 0.0
2020-Mar-25 15:28N 26°06' W 080°07'0 0.0
2020-Mar-25 13:28N 26°06' W 080°07'0 0.0
2020-Mar-25 12:58N 26°06' W 080°07'0 0.0
2020-Mar-25 10:28N 26°06' W 080°07'0 0.0
2020-Mar-25 08:28N 26°06' W 080°07'0 0.0
2020-Mar-25 07:58N 26°06' W 080°07'0 0.0
2020-Mar-25 05:28N 26°06' W 080°07'0 0.0
2020-Mar-25 01:28N 26°06' W 080°07'0 0.0
2020-Mar-25 00:58N 26°06' W 080°07'0 0.0
2020-Mar-25 00:28N 26°06' W 080°07'0 0.0
2020-Mar-24 22:58N 26°06' W 080°07'0 0.0
2020-Mar-24 21:28N 26°06' W 080°07'0 0.0
2020-Mar-24 19:58N 26°06' W 080°07'0 0.0
2020-Mar-24 19:28N 26°06' W 080°07'0 0.0
2020-Mar-24 18:58N 26°06' W 080°07'0 0.0
2020-Mar-24 17:28N 26°06' W 080°07'0 0.0
2020-Mar-24 16:58N 26°06' W 080°07'0 0.0
2020-Mar-24 15:28N 26°06' W 080°07'0 0.0
2020-Mar-24 13:58N 26°06' W 080°07'0 0.0
2020-Mar-24 13:25N 26°06' W 080°07'0 0.0
2020-Mar-24 12:58N 26°06' W 080°07'0 0.0
2020-Mar-24 09:58N 26°06' W 080°07'0 0.0
2020-Mar-24 08:28N 26°06' W 080°07'0 0.0
2020-Mar-24 07:58N 26°06' W 080°07'0 0.0
2020-Mar-24 07:28N 26°06' W 080°07'0 0.0
2020-Mar-24 05:28N 26°06' W 080°07'0 0.0
2020-Mar-24 04:28N 26°06' W 080°07'0 0.0
2020-Mar-24 01:28N 26°06' W 080°07'0 0.0
2020-Mar-24 00:28N 26°06' W 080°07'0 0.0
2020-Mar-23 23:25N 26°06' W 080°07'0 0.0
2020-Mar-23 20:58N 26°06' W 080°07'0 0.0
2020-Mar-23 19:28N 26°06' W 080°07'0 0.0
2020-Mar-23 13:25N 26°06' W 080°07'0 0.0
2020-Mar-23 12:58N 26°06' W 080°07'0 0.0
2020-Mar-23 11:19N 26°06' W 080°07'0 0.0
2020-Mar-23 10:58N 26°06' W 080°07'9 6.5
2020-Mar-23 09:30N 26°05' W 079°57'1510.0
2020-Mar-23 08:00N 26°04' W 079°40'24 9.5
2020-Mar-23 05:30N 25°41' W 079°36'1110.6
2020-Mar-23 04:30N 25°30' W 079°36'131 7.5
2020-Mar-22 11:00N 23°48' W 081°06'8 8.1 120
2020-Mar-22 10:00N 23°42' W 081°12'   110 / 201019.7 24.021.124.0
Track history (hours):
 
Tides and Currents Weather Stations Pressure Air Temp Water Temp Dewpoint Dewpoint Depression Visibility Wind Speed Wind Dir Waves Ship Positions

Carnival Triumph

Operator: Carnival Cruise Lines

Last reported at 2020-Mar-29 12:59 UTC. Time now 2020-Mar-29 15:06 UTC.
Position N 26°13' W 079°08'.

Type: Passenger vessel. MMSI: 308045000.

Date/timePositionNaut miles runAvg speedWind from/ knotsBaromVisibWave heightAir tempDewpointWater temp
2020-Mar-29 12:59N 26°13' W 079°08'1 1.0
2020-Mar-29 12:12N 26°14' W 079°09'6 8.5
2020-Mar-29 11:29N 26°11' W 079°15'24 9.7
2020-Mar-29 09:00N 25°58' W 079°37'45 3.3
2020-Mar-28 19:26N 25°15' W 079°54'33 8.3
2020-Mar-28 15:30N 25°48' W 079°51'21 7.1
2020-Mar-28 12:31N 26°05' W 080°04'3 5.7
2020-Mar-28 11:58N 26°06' W 080°07'0 0.2
2020-Mar-28 11:28N 26°06' W 080°07'0 0.0
2020-Mar-28 08:28N 26°06' W 080°07'0 0.0
2020-Mar-28 06:28N 26°06' W 080°07'0 0.0
2020-Mar-28 05:58N 26°06' W 080°07'0 0.0
2020-Mar-28 02:58N 26°06' W 080°07'0 0.0
2020-Mar-28 02:25N 26°06' W 080°07'0 0.0
2020-Mar-28 01:58N 26°06' W 080°07'0 0.0
2020-Mar-28 00:58N 26°06' W 080°07'0 0.0
2020-Mar-27 22:28N 26°06' W 080°07'0 0.0
2020-Mar-27 21:28N 26°06' W 080°07'0 0.0
2020-Mar-27 16:58N 26°06' W 080°07'0 0.0
2020-Mar-27 16:28N 26°06' W 080°07'0 0.0
2020-Mar-27 15:58N 26°06' W 080°07'0 0.0
2020-Mar-27 14:58N 26°06' W 080°07'0 0.0
2020-Mar-27 13:28N 26°06' W 080°07'0 0.0
2020-Mar-27 12:28N 26°06' W 080°07'0 0.0
2020-Mar-27 11:58N 26°06' W 080°07'0 0.0
2020-Mar-27 10:28N 26°06' W 080°07'0 0.0
2020-Mar-27 09:58N 26°06' W 080°07'0 0.0
2020-Mar-27 07:58N 26°06' W 080°07'0 0.0
2020-Mar-27 05:58N 26°06' W 080°07'0 0.0
2020-Mar-27 03:28N 26°06' W 080°07'0 0.0
2020-Mar-26 21:28N 26°06' W 080°07'0 0.0
2020-Mar-26 20:58N 26°06' W 080°07'0 0.0
2020-Mar-26 17:58N 26°06' W 080°07'0 0.0
2020-Mar-26 17:28N 26°06' W 080°07'0 0.0
2020-Mar-26 14:58N 26°06' W 080°07'0 0.0
2020-Mar-26 13:28N 26°06' W 080°07'0 0.0
2020-Mar-26 10:58N 26°06' W 080°07'0 0.0
2020-Mar-26 09:55N 26°06' W 080°07'0 0.0
2020-Mar-26 09:28N 26°06' W 080°07'0 0.0
2020-Mar-26 07:58N 26°06' W 080°07'0 0.0
2020-Mar-26 07:28N 26°06' W 080°07'0 0.0
2020-Mar-26 06:58N 26°06' W 080°07'0 0.0
2020-Mar-26 06:25N 26°06' W 080°07'0 0.0
2020-Mar-26 05:58N 26°06' W 080°07'0 0.0
2020-Mar-26 05:28N 26°06' W 080°07'0 0.0
2020-Mar-26 04:28N 26°06' W 080°07'0 0.0
2020-Mar-26 03:28N 26°06' W 080°07'0 0.0
2020-Mar-25 22:58N 26°06' W 080°07'0 0.0
2020-Mar-25 20:28N 26°06' W 080°07'0 0.0
2020-Mar-25 15:28N 26°06' W 080°07'0 0.0
2020-Mar-25 13:28N 26°06' W 080°07'0 0.0
2020-Mar-25 12:58N 26°06' W 080°07'0 0.0
2020-Mar-25 10:28N 26°06' W 080°07'0 0.0
2020-Mar-25 08:28N 26°06' W 080°07'0 0.0
2020-Mar-25 07:58N 26°06' W 080°07'0 0.0
2020-Mar-25 05:28N 26°06' W 080°07'0 0.0
2020-Mar-25 01:28N 26°06' W 080°07'0 0.0
2020-Mar-25 00:58N 26°06' W 080°07'0 0.0
2020-Mar-25 00:28N 26°06' W 080°07'0 0.0
2020-Mar-24 22:58N 26°06' W 080°07'0 0.0
2020-Mar-24 21:28N 26°06' W 080°07'0 0.0
2020-Mar-24 19:58N 26°06' W 080°07'0 0.0
2020-Mar-24 19:28N 26°06' W 080°07'0 0.0
2020-Mar-24 18:58N 26°06' W 080°07'0 0.0
2020-Mar-24 17:28N 26°06' W 080°07'0 0.0
2020-Mar-24 16:58N 26°06' W 080°07'0 0.0
2020-Mar-24 15:28N 26°06' W 080°07'0 0.0
2020-Mar-24 13:58N 26°06' W 080°07'0 0.0
2020-Mar-24 13:25N 26°06' W 080°07'0 0.0
2020-Mar-24 12:58N 26°06' W 080°07'0 0.0
2020-Mar-24 09:58N 26°06' W 080°07'0 0.0
2020-Mar-24 08:28N 26°06' W 080°07'0 0.0
2020-Mar-24 07:58N 26°06' W 080°07'0 0.0
2020-Mar-24 07:28N 26°06' W 080°07'0 0.0
2020-Mar-24 05:28N 26°06' W 080°07'0 0.0
2020-Mar-24 04:28N 26°06' W 080°07'0 0.0
2020-Mar-24 01:28N 26°06' W 080°07'0 0.0
2020-Mar-24 00:28N 26°06' W 080°07'0 0.0
2020-Mar-23 23:25N 26°06' W 080°07'0 0.0
2020-Mar-23 20:58N 26°06' W 080°07'0 0.0
2020-Mar-23 19:28N 26°06' W 080°07'0 0.0
2020-Mar-23 13:25N 26°06' W 080°07'0 0.0
2020-Mar-23 12:58N 26°06' W 080°07'0 0.0
2020-Mar-23 11:19N 26°06' W 080°07'0 0.0
2020-Mar-23 10:58N 26°06' W 080°07'9 6.5
2020-Mar-23 09:30N 26°05' W 079°57'1510.0
2020-Mar-23 08:00N 26°04' W 079°40'24 9.5
2020-Mar-23 05:30N 25°41' W 079°36'1110.6
2020-Mar-23 04:30N 25°30' W 079°36'131 7.5
2020-Mar-22 11:00N 23°48' W 081°06'8 8.1 120
2020-Mar-22 10:00N 23°42' W 081°12'   110 / 201019.7 24.021.124.0

Dump ship's entire track history